createdAt,value
2022-11-02T00:00:15.543Z,4.40
2022-11-02T00:02:44.754Z,4.40
2022-11-02T00:05:13.658Z,4.50
2022-11-02T00:07:41.231Z,4.50
2022-11-02T00:10:10.466Z,4.40
2022-11-02T00:12:37.261Z,4.50
2022-11-02T00:15:09.168Z,4.70
2022-11-02T00:17:36.292Z,4.80
2022-11-02T00:20:06.111Z,4.70
2022-11-02T00:22:34.067Z,4.60
2022-11-02T00:25:04.651Z,4.60
2022-11-02T00:27:31.749Z,4.50
2022-11-02T00:29:59.772Z,4.60
2022-11-02T00:32:28.082Z,4.70
2022-11-02T00:34:54.877Z,4.70
2022-11-02T00:37:21.648Z,4.90
2022-11-02T00:39:48.602Z,4.90
2022-11-02T00:42:17.671Z,4.90
2022-11-02T00:44:44.445Z,4.90
2022-11-02T00:47:14.340Z,4.90
2022-11-02T00:49:41.872Z,5.00
2022-11-02T00:52:09.221Z,5.10
2022-11-02T00:54:35.912Z,5.10
2022-11-02T00:57:03.682Z,5.20
2022-11-02T00:59:30.600Z,5.20
2022-11-02T01:01:57.709Z,5.40
2022-11-02T01:04:26.667Z,5.40
2022-11-02T01:06:53.318Z,5.50
2022-11-02T01:09:21.581Z,5.50
2022-11-02T01:11:48.275Z,5.40
2022-11-02T01:14:15.010Z,5.40
2022-11-02T01:16:41.841Z,5.40
2022-11-02T01:19:08.544Z,5.30
2022-11-02T01:21:35.285Z,5.30
2022-11-02T01:24:02.331Z,5.30
2022-11-02T01:26:32.089Z,5.30
2022-11-02T01:29:01.111Z,5.30
2022-11-02T01:31:28.144Z,5.30
2022-11-02T01:33:54.835Z,5.30
2022-11-02T01:38:51.760Z,5.30
2022-11-02T01:41:18.901Z,5.30
2022-11-02T01:43:56.081Z,5.40
2022-11-02T01:46:34.947Z,5.30
2022-11-02T01:49:12.110Z,5.20
2022-11-02T01:52:02.435Z,5.30
2022-11-02T01:54:37.967Z,5.30
2022-11-02T01:57:07.116Z,5.20
2022-11-02T01:59:51.899Z,5.20
2022-11-02T02:02:22.419Z,5.20
2022-11-02T02:05:00.050Z,5.30
2022-11-02T02:07:30.926Z,5.20
2022-11-02T02:10:01.098Z,5.20
2022-11-02T02:12:29.457Z,5.30
2022-11-02T02:14:59.741Z,5.30
2022-11-02T02:17:33.346Z,5.20
2022-11-02T02:20:17.666Z,5.30
2022-11-02T02:23:14.000Z,5.40
2022-11-02T02:26:01.278Z,5.30
2022-11-02T02:28:41.689Z,5.20
2022-11-02T02:31:09.012Z,5.20
2022-11-02T02:34:13.709Z,5.20
2022-11-02T02:39:17.034Z,5.00
2022-11-02T02:41:58.871Z,5.00
2022-11-02T02:44:32.143Z,4.90
2022-11-02T02:47:00.776Z,4.80
2022-11-02T02:49:40.277Z,4.70
2022-11-02T02:52:08.597Z,4.70
2022-11-02T02:54:38.993Z,4.70
2022-11-02T02:57:10.564Z,4.70
2022-11-02T02:59:44.803Z,4.70
2022-11-02T03:02:36.377Z,4.80
2022-11-02T03:05:21.488Z,4.70
2022-11-02T03:07:48.635Z,4.80
2022-11-02T03:10:24.283Z,4.90
2022-11-02T03:13:28.549Z,5.00
2022-11-02T03:15:59.663Z,5.20
2022-11-02T03:18:48.544Z,5.30
2022-11-02T03:21:20.561Z,5.40
2022-11-02T03:24:00.474Z,5.50
2022-11-02T03:26:35.368Z,5.70
2022-11-02T03:29:10.878Z,5.90
2022-11-02T03:32:05.234Z,6.00
2022-11-02T03:34:48.381Z,6.10
2022-11-02T03:38:20.042Z,6.30
2022-11-02T03:40:50.738Z,6.30
2022-11-02T03:43:21.110Z,6.30
2022-11-02T03:45:57.076Z,6.30
2022-11-02T03:48:30.295Z,6.30
2022-11-02T03:51:05.372Z,6.30
2022-11-02T03:54:07.084Z,6.30
2022-11-02T03:56:40.586Z,6.30
2022-11-02T03:59:11.309Z,6.20
2022-11-02T04:01:51.796Z,6.20
2022-11-02T04:04:20.579Z,6.20
2022-11-02T04:06:48.716Z,6.10
2022-11-02T04:09:16.507Z,6.10
2022-11-02T04:12:02.070Z,6.20
2022-11-02T04:14:38.329Z,6.20
2022-11-02T04:19:58.600Z,6.30
2022-11-02T04:22:44.921Z,6.40
2022-11-02T04:25:18.228Z,6.30
2022-11-02T04:28:09.420Z,6.30
2022-11-02T04:30:44.911Z,6.40
2022-11-02T04:33:30.520Z,6.40
2022-11-02T04:36:09.827Z,6.40
2022-11-02T04:38:41.979Z,6.40
2022-11-02T04:41:42.504Z,6.30
2022-11-02T04:44:23.618Z,6.30
2022-11-02T04:46:59.541Z,6.30
2022-11-02T04:49:30.240Z,6.20
2022-11-02T04:51:57.230Z,6.00
2022-11-02T04:54:29.661Z,6.00
2022-11-02T04:57:00.486Z,5.80
2022-11-02T04:59:30.827Z,5.80
2022-11-02T05:01:58.538Z,5.60
2022-11-02T05:04:25.485Z,5.40
2022-11-02T05:06:53.763Z,5.30
2022-11-02T05:09:23.280Z,5.30
2022-11-02T05:11:50.045Z,5.40
2022-11-02T05:14:18.016Z,5.40
2022-11-02T05:16:47.562Z,5.10
2022-11-02T05:19:14.598Z,5.00
2022-11-02T05:21:44.077Z,4.90
2022-11-02T05:24:11.258Z,4.90
2022-11-02T05:26:38.892Z,4.80
2022-11-02T05:29:07.341Z,4.80
2022-11-02T05:31:34.501Z,4.80
2022-11-02T05:34:03.652Z,4.80
2022-11-02T05:36:30.654Z,4.90
2022-11-02T05:39:01.244Z,4.70
2022-11-02T05:41:28.417Z,4.70
2022-11-02T05:43:59.518Z,4.70
2022-11-02T05:46:28.513Z,4.60
2022-11-02T05:48:55.290Z,4.80
2022-11-02T05:51:24.221Z,4.90
2022-11-02T05:53:51.119Z,4.80
2022-11-02T05:56:23.706Z,4.70
2022-11-02T05:58:53.516Z,4.70
2022-11-02T06:01:20.365Z,4.70
2022-11-02T06:03:53.481Z,4.70
2022-11-02T06:06:20.686Z,4.70
2022-11-02T06:08:47.405Z,4.70
2022-11-02T06:11:14.894Z,4.60
2022-11-02T06:13:42.227Z,4.60
2022-11-02T06:16:11.380Z,4.50
2022-11-02T06:18:39.174Z,4.60
2022-11-02T06:21:08.604Z,4.50
2022-11-02T06:23:36.060Z,4.50
2022-11-02T06:26:03.604Z,4.40
2022-11-02T06:28:31.028Z,4.50
2022-11-02T06:31:00.318Z,4.60
2022-11-02T06:33:29.975Z,4.60
2022-11-02T06:35:57.090Z,4.60
2022-11-02T06:38:24.115Z,4.70
2022-11-02T06:41:05.981Z,4.80
2022-11-02T06:43:38.006Z,4.90
2022-11-02T06:46:06.420Z,5.00
2022-11-02T06:48:36.310Z,5.00
2022-11-02T06:51:05.048Z,5.10
2022-11-02T06:53:32.657Z,5.20
2022-11-02T06:56:03.767Z,5.30
2022-11-02T06:58:30.949Z,5.30
2022-11-02T07:01:01.345Z,5.40
2022-11-02T07:03:29.896Z,5.50
2022-11-02T07:05:56.872Z,5.50
2022-11-02T07:08:23.748Z,5.60
2022-11-02T07:10:50.558Z,5.70
2022-11-02T07:13:20.001Z,5.90
2022-11-02T07:15:46.872Z,5.90
2022-11-02T07:18:14.015Z,6.00
2022-11-02T07:20:40.793Z,5.80
2022-11-02T07:23:09.085Z,5.90
2022-11-02T07:25:38.587Z,5.70
2022-11-02T07:28:07.677Z,5.80
2022-11-02T07:30:35.074Z,5.90
2022-11-02T07:33:04.864Z,5.80
2022-11-02T07:35:34.079Z,5.90
2022-11-02T07:38:05.781Z,6.00
2022-11-02T07:40:35.133Z,6.00
2022-11-02T07:43:02.700Z,6.10
2022-11-02T07:45:55.555Z,6.20
2022-11-02T07:48:22.360Z,6.40
2022-11-02T07:50:49.133Z,6.50
2022-11-02T07:53:15.941Z,6.50
2022-11-02T07:55:42.643Z,6.60
2022-11-02T07:58:15.238Z,6.80
2022-11-02T08:00:42.998Z,6.90
2022-11-02T08:03:12.673Z,7.10
2022-11-02T08:05:41.952Z,7.20
2022-11-02T08:08:15.168Z,7.30
2022-11-02T08:10:47.348Z,7.50
2022-11-02T08:13:23.334Z,7.50
2022-11-02T08:15:52.010Z,7.80
2022-11-02T08:18:21.462Z,8.20
2022-11-02T08:20:49.174Z,8.50
2022-11-02T08:23:19.263Z,8.90
2022-11-02T08:25:47.842Z,8.90
2022-11-02T08:28:20.513Z,8.70
2022-11-02T08:30:47.418Z,8.30
2022-11-02T08:33:16.686Z,8.00
2022-11-02T08:35:46.732Z,7.80
2022-11-02T08:38:14.221Z,7.80
2022-11-02T08:40:41.584Z,7.90
2022-11-02T08:43:12.740Z,7.90
2022-11-02T08:48:30.788Z,7.80
2022-11-02T08:51:02.631Z,7.90
2022-11-02T08:53:29.437Z,8.10
2022-11-02T08:55:59.140Z,8.30
2022-11-02T08:58:26.877Z,8.60
2022-11-02T09:00:54.230Z,8.90
2022-11-02T09:03:26.476Z,9.10
2022-11-02T09:06:00.452Z,9.40
2022-11-02T09:08:30.421Z,9.70
2022-11-02T09:11:06.327Z,9.80
2022-11-02T09:13:33.420Z,9.80
2022-11-02T09:16:00.706Z,9.90
2022-11-02T09:18:28.620Z,9.90
2022-11-02T09:20:55.769Z,10.00
2022-11-02T09:23:23.355Z,10.20
2022-11-02T09:25:50.344Z,10.50
2022-11-02T09:28:17.156Z,10.80
2022-11-02T09:30:43.995Z,11.10
2022-11-02T09:33:11.532Z,11.50
2022-11-02T09:35:43.408Z,11.70
2022-11-02T09:38:10.728Z,12.00
2022-11-02T09:41:02.188Z,12.10
2022-11-02T09:43:35.060Z,12.00
2022-11-02T09:46:06.474Z,12.20
2022-11-02T09:48:46.299Z,12.20
2022-11-02T09:51:20.590Z,12.20
2022-11-02T09:54:01.877Z,12.10
2022-11-02T09:56:30.709Z,11.90
2022-11-02T09:59:15.547Z,11.80
2022-11-02T10:02:16.877Z,11.80
2022-11-02T10:04:58.792Z,11.70
2022-11-02T10:07:31.635Z,11.70
2022-11-02T10:10:08.496Z,11.70
2022-11-02T10:12:41.237Z,11.60
2022-11-02T10:15:22.807Z,11.30
2022-11-02T10:17:57.213Z,11.10
2022-11-02T10:20:32.917Z,10.90
2022-11-02T10:23:07.312Z,11.00
2022-11-02T10:25:36.494Z,11.10
2022-11-02T10:28:18.129Z,11.20
2022-11-02T10:30:45.332Z,11.30
2022-11-02T10:33:19.623Z,11.50
2022-11-02T10:36:23.684Z,11.50
2022-11-02T10:39:28.168Z,11.40
2022-11-02T10:42:12.987Z,11.30
2022-11-02T10:45:08.237Z,11.50
2022-11-02T10:47:45.285Z,11.70
2022-11-02T10:50:30.277Z,11.90
2022-11-02T10:53:35.140Z,11.90
2022-11-02T10:56:02.107Z,11.90
2022-11-02T10:58:32.711Z,11.70
2022-11-02T11:01:08.104Z,11.80
2022-11-02T11:03:52.256Z,12.10
2022-11-02T11:06:19.314Z,12.30
2022-11-02T11:08:49.897Z,12.60
2022-11-02T11:11:27.242Z,12.60
2022-11-02T11:20:07.605Z,13.10
2022-11-02T11:22:42.687Z,13.40
2022-11-02T11:25:12.491Z,13.70
2022-11-02T11:27:54.335Z,14.00
2022-11-02T11:30:59.638Z,14.30
2022-11-02T11:33:20.914Z,14.80
2022-11-02T11:35:49.962Z,15.20
2022-11-02T11:38:20.023Z,15.50
2022-11-02T11:40:53.691Z,15.60
2022-11-02T11:43:23.715Z,15.80
2022-11-02T11:46:06.771Z,16.30
2022-11-02T11:48:59.655Z,16.30
2022-11-02T11:51:28.626Z,16.10
2022-11-02T11:54:25.152Z,16.50
2022-11-02T11:56:55.045Z,16.30
2022-11-02T11:59:33.398Z,16.50
2022-11-02T12:02:03.733Z,16.30
2022-11-02T12:04:35.547Z,15.90
2022-11-02T12:07:28.437Z,15.40
2022-11-02T12:10:08.213Z,14.90
2022-11-02T12:12:58.878Z,14.70
2022-11-02T12:15:46.318Z,14.30
2022-11-02T12:18:25.864Z,14.10
2022-11-02T12:21:09.160Z,13.80
2022-11-02T12:24:07.523Z,13.40
2022-11-02T12:26:50.707Z,13.20
2022-11-02T12:29:38.008Z,13.10
2022-11-02T12:32:42.245Z,13.00
2022-11-02T12:35:30.666Z,12.70
2022-11-02T12:38:28.521Z,12.70
2022-11-02T12:41:04.379Z,12.50
2022-11-02T12:43:34.257Z,12.40
2022-11-02T12:46:22.337Z,12.40
2022-11-02T12:48:55.050Z,12.30
2022-11-02T12:51:28.131Z,12.20
2022-11-02T12:54:00.884Z,12.20
2022-11-02T12:56:52.537Z,12.20
2022-11-02T12:59:35.891Z,12.20
2022-11-02T13:02:10.852Z,12.20
2022-11-02T13:04:57.070Z,12.20
2022-11-02T13:07:45.578Z,12.30
2022-11-02T13:10:30.648Z,12.30
2022-11-02T13:13:02.130Z,12.10
2022-11-02T13:15:31.892Z,12.20
2022-11-02T13:18:24.838Z,12.10
2022-11-02T13:20:58.334Z,12.20
2022-11-02T13:23:34.045Z,12.30
2022-11-02T13:26:53.251Z,12.40
2022-11-02T13:29:45.400Z,12.70
2022-11-02T13:32:44.414Z,12.80
2022-11-02T13:35:24.214Z,12.70
2022-11-02T13:38:18.417Z,12.40
2022-11-02T13:40:50.077Z,12.40
2022-11-02T13:43:52.688Z,12.20
2022-11-02T13:46:38.004Z,12.20
2022-11-02T13:49:39.763Z,12.20
2022-11-02T13:52:16.067Z,12.20
2022-11-02T13:54:48.723Z,12.20
2022-11-02T13:57:32.998Z,12.00
2022-11-02T14:00:02.319Z,12.10
2022-11-02T14:02:40.112Z,12.00
2022-11-02T14:05:08.292Z,11.90
2022-11-02T14:07:39.713Z,11.80
2022-11-02T14:10:16.739Z,11.70
2022-11-02T14:12:48.266Z,11.70
2022-11-02T14:15:15.403Z,11.60
2022-11-02T14:17:54.724Z,11.80
2022-11-02T14:20:39.522Z,11.80
2022-11-02T14:23:14.783Z,11.70
2022-11-02T14:25:53.544Z,11.60
2022-11-02T14:28:23.092Z,11.50
2022-11-02T14:31:02.089Z,11.40
2022-11-02T14:33:36.906Z,11.30
2022-11-02T14:36:24.279Z,11.20
2022-11-02T14:38:54.148Z,11.00
2022-11-02T14:41:42.646Z,10.80
2022-11-02T14:44:31.234Z,10.70
2022-11-02T14:47:10.198Z,10.50
2022-11-02T14:49:56.964Z,10.40
2022-11-02T14:52:30.037Z,10.30
2022-11-02T14:55:19.790Z,10.20
2022-11-02T14:57:59.075Z,10.20
2022-11-02T15:00:47.948Z,10.20
2022-11-02T15:03:23.869Z,10.20
2022-11-02T15:06:06.812Z,10.10
2022-11-02T15:08:58.617Z,10.10
2022-11-02T15:11:47.264Z,10.10
2022-11-02T15:14:36.521Z,10.00
2022-11-02T15:17:24.490Z,9.90
2022-11-02T15:20:14.419Z,9.80
2022-11-02T15:23:30.507Z,9.80
2022-11-02T15:25:59.878Z,9.60
2022-11-02T15:28:29.730Z,9.50
2022-11-02T15:31:03.633Z,9.40
2022-11-02T15:33:43.997Z,9.30
2022-11-02T15:36:28.519Z,9.10
2022-11-02T15:38:58.414Z,9.00
2022-11-02T15:41:34.400Z,8.80
2022-11-02T15:44:10.197Z,8.60
2022-11-02T15:46:59.387Z,8.50
2022-11-02T15:49:49.633Z,8.40
2022-11-02T15:53:21.252Z,8.30
2022-11-02T15:55:58.844Z,8.30
2022-11-02T15:58:46.258Z,8.00
2022-11-02T16:01:24.977Z,7.90
2022-11-02T16:04:10.644Z,7.70
2022-11-02T16:06:40.765Z,7.60
2022-11-02T16:09:32.875Z,7.60
2022-11-02T16:12:12.903Z,7.40
2022-11-02T16:14:40.672Z,7.30
2022-11-02T16:17:19.963Z,7.20
2022-11-02T16:19:47.123Z,7.10
2022-11-02T16:22:25.730Z,7.10
2022-11-02T16:24:57.245Z,6.90
2022-11-02T16:27:24.105Z,7.00
2022-11-02T16:29:55.523Z,6.70
2022-11-02T16:32:22.561Z,6.70
2022-11-02T16:34:49.469Z,6.70
2022-11-02T16:37:18.693Z,6.60
2022-11-02T16:39:47.376Z,6.50
2022-11-02T16:42:22.431Z,6.50
2022-11-02T16:45:00.810Z,6.50
2022-11-02T16:47:41.746Z,6.40
2022-11-02T16:50:28.615Z,6.20
2022-11-02T16:53:04.165Z,6.10
2022-11-02T16:55:48.072Z,6.00
2022-11-02T16:58:21.730Z,5.80
2022-11-02T17:01:01.886Z,5.70
2022-11-02T17:03:33.527Z,5.50
2022-11-02T17:06:05.508Z,5.40
2022-11-02T17:08:35.198Z,5.20
2022-11-02T17:11:07.231Z,5.10
2022-11-02T17:13:38.180Z,5.00
2022-11-02T17:16:12.296Z,4.90
2022-11-02T17:18:39.126Z,4.80
2022-11-02T17:21:26.246Z,4.60
2022-11-02T17:23:58.056Z,4.50
2022-11-02T17:26:29.470Z,4.40
2022-11-02T17:29:01.107Z,4.30
2022-11-02T17:31:38.335Z,4.30
2022-11-02T17:34:18.483Z,4.40
2022-11-02T17:36:47.857Z,4.60
2022-11-02T17:39:21.518Z,5.00
2022-11-02T17:42:14.258Z,5.10
2022-11-02T17:44:48.711Z,5.00
2022-11-02T17:47:21.059Z,4.80
2022-11-02T17:49:50.153Z,4.60
2022-11-02T17:52:17.001Z,4.50
2022-11-02T17:54:43.736Z,4.30
2022-11-02T17:57:15.967Z,4.10
2022-11-02T17:59:42.766Z,4.00
2022-11-02T18:02:15.044Z,4.00
2022-11-02T18:07:10.364Z,3.90
2022-11-02T18:09:37.164Z,3.70
2022-11-02T18:12:04.082Z,3.70
2022-11-02T18:14:30.837Z,3.60
2022-11-02T18:17:01.411Z,3.70
2022-11-02T18:19:28.738Z,3.70
2022-11-02T18:21:55.507Z,3.70
2022-11-02T18:24:22.437Z,3.50
2022-11-02T18:26:51.960Z,3.50
2022-11-02T18:29:18.699Z,3.40
2022-11-02T18:31:45.469Z,3.40
2022-11-02T18:34:12.547Z,3.40
2022-11-02T18:36:40.256Z,3.50
2022-11-02T18:39:07.349Z,3.50
2022-11-02T18:41:37.503Z,3.50
2022-11-02T18:44:15.000Z,3.50
2022-11-02T18:46:42.328Z,3.30
2022-11-02T18:49:11.750Z,3.30
2022-11-02T18:51:43.228Z,3.20
2022-11-02T18:54:10.272Z,3.20
2022-11-02T18:56:36.998Z,3.10
2022-11-02T18:59:06.241Z,3.10
2022-11-02T19:01:33.181Z,3.00
2022-11-02T19:04:00.866Z,3.10
2022-11-02T19:06:49.552Z,3.00
2022-11-02T19:09:21.003Z,3.00
2022-11-02T19:12:04.166Z,3.00
2022-11-02T19:14:35.352Z,3.00
2022-11-02T19:17:03.112Z,2.90
2022-11-02T19:19:32.704Z,2.80
2022-11-02T19:21:59.605Z,2.80
2022-11-02T19:24:26.822Z,2.70
2022-11-02T19:26:53.922Z,2.60
2022-11-02T19:29:23.532Z,2.50
2022-11-02T19:31:50.470Z,2.40
2022-11-02T19:34:17.283Z,2.40
2022-11-02T19:36:44.393Z,2.40
2022-11-02T19:39:13.977Z,2.40
2022-11-02T19:41:40.815Z,2.50
2022-11-02T19:44:08.913Z,2.40
2022-11-02T19:46:35.960Z,2.40
2022-11-02T19:49:02.880Z,2.30
2022-11-02T19:51:31.090Z,2.60
2022-11-02T19:54:01.117Z,2.60
2022-11-02T19:56:31.272Z,2.70
2022-11-02T19:58:59.386Z,3.00
2022-11-02T20:01:29.118Z,3.40
2022-11-02T20:03:58.242Z,3.50
2022-11-02T20:06:36.458Z,3.60
2022-11-02T20:09:05.459Z,3.40
2022-11-02T20:11:32.934Z,3.20
2022-11-02T20:14:01.576Z,3.10
2022-11-02T20:16:29.454Z,2.80
2022-11-02T20:18:56.908Z,2.70
2022-11-02T20:21:33.259Z,2.50
2022-11-02T20:24:01.470Z,2.50
2022-11-02T20:26:31.467Z,2.40
2022-11-02T20:29:00.133Z,2.40
2022-11-02T20:31:30.427Z,2.20
2022-11-02T20:34:00.749Z,2.20
2022-11-02T20:36:28.760Z,2.20
2022-11-02T20:38:56.642Z,2.10
2022-11-02T20:41:24.459Z,2.10
2022-11-02T20:43:53.028Z,2.00
2022-11-02T20:46:40.118Z,1.90
2022-11-02T20:49:20.805Z,1.90
2022-11-02T20:51:53.047Z,1.90
2022-11-02T20:54:25.058Z,2.00
2022-11-02T20:56:51.866Z,2.00
2022-11-02T20:59:18.734Z,2.00
2022-11-02T21:01:46.014Z,2.00
2022-11-02T21:04:19.871Z,1.90
2022-11-02T21:06:48.850Z,2.00
2022-11-02T21:09:15.643Z,1.80
2022-11-02T21:12:00.940Z,1.80
2022-11-02T21:14:28.324Z,1.90
2022-11-02T21:16:55.378Z,1.80
2022-11-02T21:19:22.145Z,1.80
2022-11-02T21:21:48.886Z,1.80
2022-11-02T21:24:15.583Z,1.80
2022-11-02T21:26:42.417Z,1.70
2022-11-02T21:29:09.770Z,1.70
2022-11-02T21:31:36.882Z,1.60
2022-11-02T21:34:03.740Z,1.70
2022-11-02T21:36:30.647Z,1.70
2022-11-02T21:38:58.679Z,1.60
2022-11-02T21:41:28.069Z,1.60
2022-11-02T21:43:55.953Z,1.60
2022-11-02T21:46:24.199Z,1.50
2022-11-02T21:48:51.778Z,1.70
2022-11-02T21:51:20.991Z,1.70
2022-11-02T21:53:49.662Z,1.80
2022-11-02T21:56:21.031Z,1.80
2022-11-02T21:58:48.495Z,1.70
2022-11-02T22:01:58.932Z,1.80
2022-11-02T22:04:28.974Z,1.90
2022-11-02T22:06:57.086Z,1.90
2022-11-02T22:09:27.732Z,1.90
2022-11-02T22:12:14.007Z,1.90
2022-11-02T22:14:47.109Z,1.90
2022-11-02T22:17:43.186Z,2.00
2022-11-02T22:20:00.721Z,2.00
2022-11-02T22:22:27.738Z,2.00
2022-11-02T22:24:54.502Z,2.00
2022-11-02T22:27:21.389Z,1.90
2022-11-02T22:29:48.084Z,1.90
2022-11-02T22:32:14.816Z,1.90
2022-11-02T22:34:43.864Z,1.90
2022-11-02T22:37:29.142Z,1.90
2022-11-02T22:39:56.005Z,1.90
2022-11-02T22:42:22.744Z,1.80
2022-11-02T22:44:49.567Z,1.70
2022-11-02T22:47:16.387Z,1.60
2022-11-02T22:49:43.164Z,1.50
2022-11-02T22:52:10.103Z,1.60
2022-11-02T22:54:36.837Z,1.60
2022-11-02T22:57:03.646Z,1.60
2022-11-02T22:59:30.403Z,1.80
2022-11-02T23:01:57.911Z,1.80
2022-11-02T23:04:24.702Z,1.80
2022-11-02T23:06:51.419Z,1.70
2022-11-02T23:09:18.203Z,1.80
2022-11-02T23:11:44.968Z,1.80
2022-11-02T23:14:17.039Z,2.00
2022-11-02T23:16:48.469Z,2.10
2022-11-02T23:19:30.523Z,2.40
2022-11-02T23:22:35.335Z,2.50
2022-11-02T23:25:19.627Z,2.80
2022-11-02T23:28:17.434Z,3.00
2022-11-02T23:31:03.190Z,3.10
2022-11-02T23:33:32.077Z,3.10
2022-11-02T23:36:12.091Z,2.80
2022-11-02T23:39:04.431Z,2.60
2022-11-02T23:41:32.858Z,2.50
2022-11-02T23:44:14.685Z,2.30
2022-11-02T23:46:43.548Z,2.10
2022-11-02T23:49:11.406Z,2.20
2022-11-02T23:51:57.664Z,2.10
2022-11-02T23:54:42.771Z,2.10
2022-11-02T23:57:09.705Z,2.10
2022-11-02T23:59:36.789Z,2.10
